createdAt,value
2018-06-15T00:00:58.382Z,41.33
2018-06-15T00:02:03.934Z,39.83
2018-06-15T00:03:09.357Z,42.73
2018-06-15T00:04:14.821Z,40.70
2018-06-15T00:05:20.259Z,42.10
2018-06-15T00:06:25.870Z,43.73
2018-06-15T00:07:31.474Z,42.10
2018-06-15T00:08:36.962Z,44.07
2018-06-15T00:09:42.389Z,41.70
2018-06-15T00:10:47.778Z,43.00
2018-06-15T00:11:53.245Z,43.93
2018-06-15T00:12:58.949Z,42.83
2018-06-15T00:14:04.465Z,42.13
2018-06-15T00:15:09.944Z,44.13
2018-06-15T00:16:15.401Z,40.10
2018-06-15T00:17:21.269Z,41.30
2018-06-15T00:18:26.688Z,42.73
2018-06-15T00:19:32.127Z,42.80
2018-06-15T00:20:37.605Z,41.90
2018-06-15T00:21:43.014Z,42.87
2018-06-15T00:22:48.517Z,42.93
2018-06-15T00:23:54.090Z,41.73
2018-06-15T00:24:59.645Z,42.60
2018-06-15T00:26:05.102Z,41.73
2018-06-15T00:27:10.511Z,42.40
2018-06-15T00:28:15.945Z,43.20
2018-06-15T00:29:21.441Z,42.13
2018-06-15T00:30:26.959Z,43.10
2018-06-15T00:31:32.398Z,41.53
2018-06-15T00:32:37.845Z,41.80
2018-06-15T00:33:43.286Z,42.27
2018-06-15T00:34:48.677Z,45.07
2018-06-15T00:35:54.065Z,41.50
2018-06-15T00:36:59.624Z,42.40
2018-06-15T00:38:05.037Z,42.43
2018-06-15T00:39:12.361Z,43.03
2018-06-15T00:40:17.446Z,40.53
2018-06-15T00:41:22.777Z,40.40
2018-06-15T00:42:28.233Z,42.67
2018-06-15T00:43:33.693Z,39.63
2018-06-15T00:44:39.334Z,42.50
2018-06-15T00:45:44.881Z,40.50
2018-06-15T00:46:50.316Z,39.73
2018-06-15T00:47:55.779Z,40.83
2018-06-15T00:49:01.286Z,42.27
2018-06-15T00:50:06.931Z,39.40
2018-06-15T00:51:12.337Z,40.27
2018-06-15T00:52:17.754Z,43.20
2018-06-15T00:53:23.237Z,42.87
2018-06-15T00:54:28.688Z,41.97
2018-06-15T00:55:34.165Z,40.73
2018-06-15T00:56:56.569Z,44.60
2018-06-15T00:58:01.986Z,42.77
2018-06-15T00:59:07.424Z,43.10
2018-06-15T01:00:13.038Z,41.90
2018-06-15T01:01:18.454Z,42.53
2018-06-15T01:02:23.981Z,42.53
2018-06-15T01:03:29.401Z,42.23
2018-06-15T01:04:34.824Z,43.00
2018-06-15T01:05:40.254Z,40.70
2018-06-15T01:06:45.716Z,41.10
2018-06-15T01:07:51.162Z,43.17
2018-06-15T01:08:56.557Z,44.43
2018-06-15T01:10:02.062Z,43.70
2018-06-15T01:11:08.271Z,43.77
2018-06-15T01:12:13.705Z,45.00
2018-06-15T01:13:19.353Z,43.30
2018-06-15T01:14:24.814Z,44.10
2018-06-15T01:15:30.233Z,43.50
2018-06-15T01:16:35.657Z,41.77
2018-06-15T01:17:41.079Z,42.97
2018-06-15T01:18:46.404Z,44.07
2018-06-15T01:19:51.745Z,44.20
2018-06-15T01:20:57.156Z,42.43
2018-06-15T01:22:02.746Z,44.33
2018-06-15T01:23:08.200Z,44.60
2018-06-15T01:24:13.621Z,45.10
2018-06-15T01:25:19.037Z,43.57
2018-06-15T01:26:24.493Z,45.47
2018-06-15T01:27:29.923Z,44.47
2018-06-15T01:28:35.318Z,42.20
2018-06-15T01:29:40.721Z,42.00
2018-06-15T01:30:46.146Z,42.53
2018-06-15T01:31:51.661Z,43.50
2018-06-15T01:32:57.073Z,42.57
2018-06-15T01:34:02.487Z,42.33
2018-06-15T01:35:08.004Z,44.27
2018-06-15T01:36:13.456Z,42.10
2018-06-15T01:37:18.860Z,42.10
2018-06-15T01:38:24.369Z,44.20
2018-06-15T01:39:30.000Z,43.70
2018-06-15T01:40:35.469Z,44.00
2018-06-15T01:41:40.949Z,45.07
2018-06-15T01:42:46.378Z,42.80
2018-06-15T01:43:51.807Z,44.57
2018-06-15T01:44:57.205Z,43.00
2018-06-15T01:46:03.118Z,43.17
2018-06-15T01:47:08.557Z,43.70
2018-06-15T01:48:14.243Z,43.60
2018-06-15T01:49:19.664Z,41.87
2018-06-15T01:50:25.089Z,42.97
2018-06-15T01:51:31.005Z,42.10
2018-06-15T01:52:36.470Z,42.07
2018-06-15T01:53:41.911Z,43.37
2018-06-15T01:54:47.311Z,43.73
2018-06-15T01:55:52.741Z,42.50
2018-06-15T01:56:58.174Z,43.67
2018-06-15T01:58:03.674Z,44.00
2018-06-15T01:59:09.085Z,44.00
2018-06-15T02:00:14.522Z,43.30
2018-06-15T02:01:20.021Z,44.27
2018-06-15T02:02:25.341Z,43.57
2018-06-15T02:03:30.441Z,44.40
2018-06-15T02:04:35.531Z,42.40
2018-06-15T02:05:40.914Z,43.83
2018-06-15T02:06:46.537Z,47.60
2018-06-15T02:07:52.286Z,42.37
2018-06-15T02:08:57.759Z,41.77
2018-06-15T02:10:03.288Z,42.37
2018-06-15T02:11:08.703Z,41.20
2018-06-15T02:12:14.198Z,45.70
2018-06-15T02:13:19.649Z,44.00
2018-06-15T02:14:27.920Z,45.30
2018-06-15T02:15:33.337Z,45.23
2018-06-15T02:16:38.765Z,47.57
2018-06-15T02:17:44.632Z,45.47
2018-06-15T02:18:50.047Z,47.10
2018-06-15T02:19:55.477Z,45.20
2018-06-15T02:21:00.928Z,45.43
2018-06-15T02:22:06.391Z,44.70
2018-06-15T02:23:11.865Z,45.10
2018-06-15T02:24:17.269Z,45.00
2018-06-15T02:25:22.781Z,45.27
2018-06-15T02:26:28.217Z,46.47
2018-06-15T02:27:33.639Z,46.03
2018-06-15T02:28:39.048Z,47.50
2018-06-15T02:29:44.544Z,47.27
2018-06-15T02:30:50.346Z,45.23
2018-06-15T02:31:55.860Z,46.47
2018-06-15T02:33:01.298Z,45.20
2018-06-15T02:34:06.782Z,44.87
2018-06-15T02:35:12.578Z,45.50
2018-06-15T02:36:17.993Z,45.17
2018-06-15T02:37:23.469Z,47.90
2018-06-15T02:38:28.997Z,46.70
2018-06-15T02:39:34.393Z,48.27
2018-06-15T02:40:39.813Z,46.50
2018-06-15T02:41:45.234Z,44.60
2018-06-15T02:42:50.646Z,45.40
2018-06-15T02:43:56.109Z,49.60
2018-06-15T02:45:01.554Z,46.60
2018-06-15T02:46:07.085Z,49.03
2018-06-15T02:47:12.550Z,47.50
2018-06-15T02:48:18.015Z,46.97
2018-06-15T02:49:23.505Z,49.10
2018-06-15T02:50:28.949Z,46.47
2018-06-15T02:51:34.532Z,45.70
2018-06-15T02:52:39.949Z,45.30
2018-06-15T02:53:45.409Z,46.30
2018-06-15T02:54:50.906Z,42.40
2018-06-15T02:55:56.425Z,45.00
2018-06-15T02:57:01.890Z,40.97
2018-06-15T02:58:07.322Z,43.37
2018-06-15T02:59:12.961Z,41.80
2018-06-15T03:00:18.358Z,40.50
2018-06-15T03:01:23.801Z,41.60
2018-06-15T03:02:29.197Z,39.73
2018-06-15T03:03:34.613Z,40.73
2018-06-15T03:04:40.073Z,38.67
2018-06-15T03:05:45.462Z,40.97
2018-06-15T03:06:50.869Z,42.30
2018-06-15T03:07:56.303Z,41.67
2018-06-15T03:09:01.713Z,43.13
2018-06-15T03:10:07.557Z,42.57
2018-06-15T03:11:13.045Z,44.30
2018-06-15T03:12:18.449Z,42.77
2018-06-15T03:13:23.857Z,41.03
2018-06-15T03:14:29.298Z,42.03
2018-06-15T03:15:35.168Z,40.70
2018-06-15T03:16:40.741Z,41.97
2018-06-15T03:17:45.908Z,41.43
2018-06-15T03:18:51.316Z,42.10
2018-06-15T03:19:56.721Z,42.27
2018-06-15T03:21:02.198Z,42.97
2018-06-15T03:22:07.920Z,40.30
2018-06-15T03:23:13.369Z,40.90
2018-06-15T03:24:18.824Z,41.90
2018-06-15T03:25:24.249Z,40.50
2018-06-15T03:26:30.038Z,41.77
2018-06-15T03:27:35.510Z,41.17
2018-06-15T03:28:41.713Z,40.60
2018-06-15T03:29:47.126Z,40.10
2018-06-15T03:30:52.567Z,39.80
2018-06-15T03:31:58.055Z,38.33
2018-06-15T03:33:03.469Z,38.23
2018-06-15T03:34:08.893Z,43.03
2018-06-15T03:35:14.334Z,42.10
2018-06-15T03:36:19.735Z,41.63
2018-06-15T03:37:25.299Z,40.57
2018-06-15T03:38:30.720Z,42.10
2018-06-15T03:39:36.142Z,42.70
2018-06-15T03:40:41.638Z,41.53
2018-06-15T03:41:47.017Z,42.77
2018-06-15T03:42:52.537Z,40.60
2018-06-15T03:43:58.068Z,41.10
2018-06-15T03:45:03.569Z,38.13
2018-06-15T03:46:09.053Z,40.93
2018-06-15T03:47:14.445Z,41.00
2018-06-15T03:48:19.869Z,39.77
2018-06-15T03:49:25.468Z,41.00
2018-06-15T03:50:30.689Z,41.30
2018-06-15T03:51:36.152Z,39.43
2018-06-15T03:52:41.789Z,40.60
2018-06-15T03:53:47.197Z,39.90
2018-06-15T03:54:52.633Z,42.20
2018-06-15T03:55:58.357Z,41.80
2018-06-15T03:57:04.338Z,39.77
2018-06-15T03:58:09.801Z,40.13
2018-06-15T03:59:15.262Z,36.13
2018-06-15T04:00:20.787Z,39.17
2018-06-15T04:01:26.301Z,37.90
2018-06-15T04:02:31.755Z,38.20
2018-06-15T04:03:37.214Z,37.50
2018-06-15T04:04:42.653Z,38.90
2018-06-15T04:05:48.103Z,39.10
2018-06-15T04:06:53.538Z,36.60
2018-06-15T04:07:59.544Z,36.90
2018-06-15T04:09:07.797Z,37.23
2018-06-15T04:10:13.286Z,39.40
2018-06-15T04:11:18.692Z,36.87
2018-06-15T04:12:24.391Z,38.67
2018-06-15T04:13:29.906Z,38.53
2018-06-15T04:14:35.336Z,37.87
2018-06-15T04:15:40.773Z,39.60
2018-06-15T04:16:46.263Z,38.53
2018-06-15T04:17:56.233Z,38.10
2018-06-15T04:19:01.674Z,34.90
2018-06-15T04:20:07.141Z,37.63
2018-06-15T04:21:12.640Z,36.03
2018-06-15T04:22:18.282Z,34.83
2018-06-15T04:23:23.665Z,35.50
2018-06-15T04:24:29.057Z,36.40
2018-06-15T04:25:34.495Z,35.50
2018-06-15T04:26:39.948Z,36.60
2018-06-15T04:27:45.850Z,36.07
2018-06-15T04:28:51.340Z,37.80
2018-06-15T04:29:56.785Z,35.83
2018-06-15T04:31:02.425Z,37.80
2018-06-15T04:32:08.041Z,33.97
2018-06-15T04:33:13.537Z,35.80
2018-06-15T04:34:19.110Z,34.80
2018-06-15T04:35:24.538Z,34.70
2018-06-15T04:36:30.087Z,37.33
2018-06-15T04:37:35.513Z,34.57
2018-06-15T04:38:40.966Z,37.07
2018-06-15T04:39:46.386Z,36.17
2018-06-15T04:40:51.799Z,35.33
2018-06-15T04:41:57.370Z,36.20
2018-06-15T04:43:02.866Z,37.47
2018-06-15T04:44:08.547Z,37.47
2018-06-15T04:45:14.187Z,36.10
2018-06-15T04:46:19.814Z,35.67
2018-06-15T04:47:25.709Z,38.10
2018-06-15T04:48:31.506Z,38.00
2018-06-15T04:49:37.133Z,34.37
2018-06-15T04:50:42.556Z,36.13
2018-06-15T04:51:48.124Z,35.97
2018-06-15T04:52:54.151Z,37.00
2018-06-15T04:53:59.596Z,35.57
2018-06-15T04:55:05.509Z,35.00
2018-06-15T04:56:10.997Z,34.30
2018-06-15T04:57:16.386Z,35.50
2018-06-15T04:58:21.860Z,34.33
2018-06-15T04:59:27.602Z,35.47
2018-06-15T05:00:33.021Z,34.13
2018-06-15T05:01:38.425Z,36.90
2018-06-15T05:02:43.929Z,35.67
2018-06-15T05:03:49.394Z,34.50
2018-06-15T05:04:54.860Z,32.90
2018-06-15T05:06:00.309Z,34.10
2018-06-15T05:07:05.836Z,35.10
2018-06-15T05:08:11.455Z,33.63
2018-06-15T05:09:16.895Z,32.60
2018-06-15T05:10:22.541Z,32.13
2018-06-15T05:11:27.973Z,31.60
2018-06-15T05:12:33.377Z,28.90
2018-06-15T05:13:38.776Z,30.07
2018-06-15T05:14:44.237Z,31.60
2018-06-15T05:15:49.649Z,31.93
2018-06-15T05:16:55.091Z,30.40
2018-06-15T05:18:00.615Z,31.93
2018-06-15T05:19:06.176Z,32.60
2018-06-15T05:20:11.626Z,30.93
2018-06-15T05:21:17.017Z,31.03
2018-06-15T05:22:22.623Z,30.47
2018-06-15T05:23:28.197Z,33.50
2018-06-15T05:24:33.609Z,30.23
2018-06-15T05:25:39.009Z,32.63
2018-06-15T05:26:44.634Z,31.63
2018-06-15T05:27:50.033Z,30.23
2018-06-15T05:28:55.543Z,29.73
2018-06-15T05:30:00.978Z,31.90
2018-06-15T05:31:06.611Z,32.00
2018-06-15T05:32:12.228Z,30.50
2018-06-15T05:33:17.697Z,32.30
2018-06-15T05:34:23.180Z,31.73
2018-06-15T05:35:28.666Z,29.73
2018-06-15T05:36:34.241Z,31.13
2018-06-15T05:37:39.733Z,33.43
2018-06-15T05:38:45.258Z,29.30
2018-06-15T05:39:50.699Z,30.27
2018-06-15T05:40:56.406Z,29.33
2018-06-15T05:42:01.835Z,31.20
2018-06-15T05:43:06.979Z,29.40
2018-06-15T05:44:12.386Z,29.50
2018-06-15T05:45:18.030Z,30.43
2018-06-15T05:46:23.558Z,30.57
2018-06-15T05:47:28.976Z,31.87
2018-06-15T05:48:34.537Z,32.10
2018-06-15T05:49:39.972Z,29.90
2018-06-15T05:50:45.397Z,32.30
2018-06-15T05:51:50.846Z,30.97
2018-06-15T05:52:56.283Z,30.50
2018-06-15T05:54:01.929Z,32.60
2018-06-15T05:55:07.362Z,34.50
2018-06-15T05:56:12.830Z,30.50
2018-06-15T05:57:18.276Z,31.10
2018-06-15T05:58:23.722Z,31.27
2018-06-15T05:59:29.158Z,30.17
2018-06-15T06:00:34.586Z,30.10
2018-06-15T06:01:40.121Z,30.27
2018-06-15T06:02:45.533Z,31.00
2018-06-15T06:03:50.952Z,30.60
2018-06-15T06:04:56.499Z,32.33
2018-06-15T06:06:01.922Z,29.50
2018-06-15T06:07:07.461Z,30.17
2018-06-15T06:08:13.024Z,30.80
2018-06-15T06:09:18.477Z,30.03
2018-06-15T06:10:24.617Z,30.13
2018-06-15T06:11:30.054Z,31.47
2018-06-15T06:12:35.513Z,31.30
2018-06-15T06:13:40.970Z,31.50
2018-06-15T06:14:46.447Z,29.77
2018-06-15T06:15:52.056Z,30.53
2018-06-15T06:16:57.498Z,32.60
2018-06-15T06:18:02.931Z,31.00
2018-06-15T06:19:08.392Z,32.13
2018-06-15T06:20:13.785Z,30.10
2018-06-15T06:21:19.270Z,30.70
2018-06-15T06:22:24.747Z,31.57
2018-06-15T06:23:30.225Z,31.23
2018-06-15T06:24:35.702Z,30.93
2018-06-15T06:25:41.121Z,31.53
2018-06-15T06:26:46.813Z,29.30
2018-06-15T06:27:52.258Z,31.67
2018-06-15T06:28:57.661Z,29.70
2018-06-15T06:30:03.415Z,28.30
2018-06-15T06:31:09.210Z,28.37
2018-06-15T06:32:14.659Z,28.67
2018-06-15T06:33:20.080Z,30.50
2018-06-15T06:34:25.515Z,29.30
2018-06-15T06:35:30.960Z,30.37
2018-06-15T06:36:36.474Z,29.23
2018-06-15T06:37:42.082Z,31.73
2018-06-15T06:38:47.538Z,28.90
2018-06-15T06:39:52.983Z,27.70
2018-06-15T06:40:58.318Z,27.57
2018-06-15T06:42:03.763Z,27.60
2018-06-15T06:43:09.178Z,29.20
2018-06-15T06:44:14.646Z,29.53
2018-06-15T06:45:20.210Z,28.90
2018-06-15T06:46:25.708Z,27.70
2018-06-15T06:47:31.125Z,28.07
2018-06-15T06:48:37.119Z,28.07
2018-06-15T06:49:42.560Z,26.00
2018-06-15T06:50:47.990Z,27.20
2018-06-15T06:51:53.504Z,23.20
2018-06-15T06:52:59.075Z,25.97
2018-06-15T06:54:04.702Z,27.23
2018-06-15T06:55:10.482Z,26.40
2018-06-15T06:56:15.921Z,27.23
2018-06-15T06:57:21.393Z,26.27
2018-06-15T06:58:26.906Z,27.60
2018-06-15T06:59:32.361Z,26.93
2018-06-15T07:00:37.794Z,24.83
2018-06-15T07:01:43.286Z,23.80
2018-06-15T07:02:48.725Z,25.27
2018-06-15T07:03:54.157Z,25.20
2018-06-15T07:04:59.562Z,25.20
2018-06-15T07:06:05.093Z,25.47
2018-06-15T07:07:10.798Z,25.30
2018-06-15T07:08:16.269Z,24.80
2018-06-15T07:09:21.877Z,25.37
2018-06-15T07:10:27.445Z,25.90
2018-06-15T07:11:32.858Z,26.90
2018-06-15T07:12:38.422Z,26.37
2018-06-15T07:13:43.977Z,24.83
2018-06-15T07:14:53.430Z,25.70
2018-06-15T07:15:58.777Z,24.60
2018-06-15T07:17:04.205Z,23.90
2018-06-15T07:18:09.686Z,25.77
2018-06-15T07:19:15.113Z,25.60
2018-06-15T07:20:20.578Z,25.10
2018-06-15T07:21:26.045Z,25.03
2018-06-15T07:22:31.581Z,26.20
2018-06-15T07:23:37.025Z,25.70
2018-06-15T07:24:42.610Z,27.13
2018-06-15T07:25:48.100Z,24.67
2018-06-15T07:26:53.585Z,23.30
2018-06-15T07:27:58.972Z,24.97
2018-06-15T07:29:04.498Z,25.30
2018-06-15T07:30:10.007Z,25.73
2018-06-15T07:31:15.418Z,25.27
2018-06-15T07:32:20.830Z,25.33
2018-06-15T07:33:26.261Z,24.63
2018-06-15T07:34:31.677Z,25.53
2018-06-15T07:35:37.224Z,24.57
2018-06-15T07:36:42.699Z,25.20
2018-06-15T07:37:48.114Z,27.10
2018-06-15T07:38:53.534Z,25.60
2018-06-15T07:39:59.005Z,23.73
2018-06-15T07:41:04.840Z,25.37
2018-06-15T07:42:10.293Z,23.40
2018-06-15T07:43:15.730Z,24.63
2018-06-15T07:44:21.166Z,24.40
2018-06-15T07:45:26.574Z,24.20
2018-06-15T07:46:32.049Z,24.40
2018-06-15T07:47:37.495Z,23.53
2018-06-15T07:48:42.878Z,22.97
2018-06-15T07:49:48.313Z,22.80
2018-06-15T07:50:53.746Z,23.47
2018-06-15T07:51:59.281Z,24.60
2018-06-15T07:53:04.725Z,22.63
2018-06-15T07:54:10.267Z,24.37
2018-06-15T07:55:15.705Z,23.70
2018-06-15T07:56:21.158Z,24.73
2018-06-15T07:57:26.592Z,22.57
2018-06-15T07:58:32.028Z,24.20
2018-06-15T07:59:37.533Z,25.03
2018-06-15T08:00:42.936Z,25.10
2018-06-15T08:01:48.496Z,24.17
2018-06-15T08:02:53.918Z,21.67
2018-06-15T08:04:04.025Z,24.80
2018-06-15T08:05:09.433Z,22.37
2018-06-15T08:06:14.845Z,24.47
2018-06-15T08:07:20.306Z,22.97
2018-06-15T08:08:25.777Z,23.40
2018-06-15T08:09:31.262Z,23.07
2018-06-15T08:10:36.687Z,25.90
2018-06-15T08:11:42.593Z,23.17
2018-06-15T08:12:48.181Z,23.53
2018-06-15T08:13:53.634Z,23.80
2018-06-15T08:14:59.041Z,24.27
2018-06-15T08:16:04.474Z,23.53
2018-06-15T08:17:09.937Z,22.90
2018-06-15T08:18:15.400Z,21.03
2018-06-15T08:19:20.816Z,21.90
2018-06-15T08:20:26.238Z,20.80
2018-06-15T08:21:31.770Z,22.13
2018-06-15T08:22:37.305Z,21.30
2018-06-15T08:23:42.873Z,21.20
2018-06-15T08:24:48.277Z,22.10
2018-06-15T08:25:53.714Z,21.77
2018-06-15T08:26:59.249Z,23.00
2018-06-15T08:28:04.681Z,21.60
2018-06-15T08:29:10.195Z,21.73
2018-06-15T08:30:15.665Z,22.17
2018-06-15T08:31:21.124Z,21.80
2018-06-15T08:32:26.583Z,22.30
2018-06-15T08:33:32.120Z,20.70
2018-06-15T08:34:38.050Z,19.33
2018-06-15T08:35:43.500Z,19.83
2018-06-15T08:36:48.990Z,19.27
2018-06-15T08:37:54.634Z,20.03
2018-06-15T08:39:00.057Z,17.40
2018-06-15T08:40:05.757Z,18.20
2018-06-15T08:41:11.206Z,17.70
2018-06-15T08:42:16.669Z,19.50
2018-06-15T08:43:22.094Z,18.13
2018-06-15T08:44:27.500Z,20.10
2018-06-15T08:45:33.141Z,20.57
2018-06-15T08:46:39.136Z,20.83
2018-06-15T08:47:44.541Z,19.87
2018-06-15T08:48:49.958Z,17.47
2018-06-15T08:49:55.455Z,16.10
2018-06-15T08:51:00.959Z,15.80
2018-06-15T08:52:06.670Z,18.67
2018-06-15T08:53:12.167Z,18.03
2018-06-15T08:54:17.664Z,16.97
2018-06-15T08:55:23.075Z,19.20
2018-06-15T08:56:28.541Z,18.00
2018-06-15T08:57:33.936Z,16.60
2018-06-15T08:58:39.355Z,17.63
2018-06-15T08:59:44.762Z,17.30
2018-06-15T09:00:50.195Z,18.33
2018-06-15T09:01:55.723Z,17.40
2018-06-15T09:03:01.152Z,17.83
2018-06-15T09:04:06.327Z,17.20
2018-06-15T09:05:11.666Z,17.80
2018-06-15T09:06:17.121Z,15.17
2018-06-15T09:07:22.589Z,15.90
2018-06-15T09:08:28.102Z,16.93
2018-06-15T09:09:33.562Z,16.27
2018-06-15T09:10:39.097Z,18.20
2018-06-15T09:11:44.610Z,18.73
2018-06-15T09:12:50.022Z,16.30
2018-06-15T09:13:55.454Z,16.90
2018-06-15T09:15:00.915Z,17.33
2018-06-15T09:16:06.426Z,15.60
2018-06-15T09:17:12.045Z,18.53
2018-06-15T09:18:17.474Z,17.60
2018-06-15T09:19:22.920Z,17.77
2018-06-15T09:20:28.313Z,16.77
2018-06-15T09:21:33.814Z,15.40
2018-06-15T09:22:39.245Z,17.37
2018-06-15T09:23:44.697Z,16.13
2018-06-15T09:24:50.373Z,17.20
2018-06-15T09:25:55.825Z,15.30
2018-06-15T09:27:01.321Z,14.73
2018-06-15T09:28:06.742Z,14.60
2018-06-15T09:29:12.404Z,16.87
2018-06-15T09:30:17.886Z,17.30
2018-06-15T09:31:23.406Z,15.83
2018-06-15T09:32:29.145Z,15.20
2018-06-15T09:33:34.626Z,16.60
2018-06-15T09:34:40.064Z,17.00
2018-06-15T09:35:45.529Z,15.10
2018-06-15T09:36:50.951Z,14.70
2018-06-15T09:37:56.382Z,14.47
2018-06-15T09:39:02.012Z,10.60
2018-06-15T09:40:07.454Z,11.13
2018-06-15T09:41:12.962Z,11.10
2018-06-15T09:42:18.429Z,12.17
2018-06-15T09:43:23.841Z,9.33
2018-06-15T09:44:29.378Z,8.20
2018-06-15T09:45:35.078Z,8.83
2018-06-15T09:46:40.545Z,9.00
2018-06-15T09:47:45.974Z,9.90
2018-06-15T09:48:51.401Z,9.30
2018-06-15T09:49:56.801Z,9.10
2018-06-15T09:51:02.331Z,11.07
2018-06-15T09:52:08.113Z,11.10
2018-06-15T09:53:13.534Z,11.23
2018-06-15T09:54:19.453Z,9.17
2018-06-15T09:55:24.939Z,9.07
2018-06-15T09:56:30.478Z,8.60
2018-06-15T09:57:35.932Z,9.00
2018-06-15T09:58:41.390Z,8.10
2018-06-15T09:59:46.850Z,10.00
2018-06-15T10:00:57.339Z,8.60
2018-06-15T10:02:02.829Z,8.47
2018-06-15T10:03:08.331Z,7.77
2018-06-15T10:04:13.770Z,8.73
2018-06-15T10:05:19.180Z,6.77
2018-06-15T10:06:24.663Z,5.87
2018-06-15T10:07:30.086Z,6.70
2018-06-15T10:08:36.136Z,6.53
2018-06-15T10:09:41.554Z,6.93
2018-06-15T10:10:46.945Z,6.53
2018-06-15T10:11:52.405Z,6.90
2018-06-15T10:12:57.813Z,6.30
2018-06-15T10:14:03.242Z,6.97
2018-06-15T10:15:08.687Z,7.70
2018-06-15T10:16:14.113Z,6.90
2018-06-15T10:17:20.016Z,8.00
2018-06-15T10:18:25.410Z,7.70
2018-06-15T10:19:30.914Z,8.07
2018-06-15T10:20:36.329Z,7.47
2018-06-15T10:21:41.825Z,8.20
2018-06-15T10:22:47.288Z,7.10
2018-06-15T10:23:52.760Z,8.23
2018-06-15T10:24:58.323Z,8.63
2018-06-15T10:26:03.778Z,8.10
2018-06-15T10:27:09.247Z,7.30
2018-06-15T10:28:14.685Z,6.50
2018-06-15T10:29:20.105Z,7.33
2018-06-15T10:30:25.577Z,6.43
2018-06-15T10:31:31.001Z,6.60
2018-06-15T10:32:36.462Z,6.07
2018-06-15T10:33:41.974Z,8.33
2018-06-15T10:34:47.453Z,9.50
2018-06-15T10:35:52.896Z,11.00
2018-06-15T10:36:58.321Z,11.53
2018-06-15T10:38:03.752Z,11.70
2018-06-15T10:39:11.259Z,13.00
2018-06-15T10:40:16.649Z,14.20
2018-06-15T10:41:22.133Z,11.87
2018-06-15T10:42:28.593Z,10.70
2018-06-15T10:43:34.030Z,11.30
2018-06-15T10:44:39.521Z,10.73
2018-06-15T10:45:45.053Z,11.43
2018-06-15T10:46:50.424Z,9.50
2018-06-15T10:47:55.874Z,10.10
2018-06-15T10:49:01.376Z,10.90
2018-06-15T10:50:06.897Z,10.90
2018-06-15T10:51:12.360Z,11.80
2018-06-15T10:52:17.801Z,10.67
2018-06-15T10:53:23.215Z,11.80
2018-06-15T10:54:28.650Z,11.30
2018-06-15T10:55:34.081Z,11.60
2018-06-15T10:56:39.641Z,11.30
2018-06-15T10:57:45.393Z,11.70
2018-06-15T10:58:50.847Z,11.20
2018-06-15T10:59:56.272Z,11.20
2018-06-15T11:01:01.889Z,11.60
2018-06-15T11:02:07.668Z,10.70
2018-06-15T11:03:13.234Z,12.10
2018-06-15T11:04:18.668Z,11.20
2018-06-15T11:05:24.152Z,11.07
2018-06-15T11:06:30.045Z,10.30
2018-06-15T11:07:35.217Z,9.93
2018-06-15T11:08:40.569Z,10.47
2018-06-15T11:09:45.976Z,10.47
2018-06-15T11:10:51.497Z,10.37
2018-06-15T11:11:57.026Z,9.30
2018-06-15T11:13:02.476Z,9.70
2018-06-15T11:14:08.389Z,10.83
2018-06-15T11:15:13.852Z,11.10
2018-06-15T11:16:19.307Z,11.97
2018-06-15T11:17:24.951Z,11.00
2018-06-15T11:18:30.638Z,11.87
2018-06-15T11:19:36.079Z,10.57
2018-06-15T11:20:41.505Z,10.80
2018-06-15T11:21:46.937Z,9.23
2018-06-15T11:22:52.441Z,9.13
2018-06-15T11:23:57.873Z,9.67
2018-06-15T11:25:03.314Z,9.77
2018-06-15T11:26:08.765Z,10.30
2018-06-15T11:27:14.198Z,9.87
2018-06-15T11:28:19.907Z,10.87
2018-06-15T11:29:25.344Z,9.80
2018-06-15T11:30:30.894Z,10.63
2018-06-15T11:31:36.560Z,10.37
2018-06-15T11:32:42.101Z,9.53
2018-06-15T11:33:47.597Z,8.90
2018-06-15T11:34:53.033Z,11.10
2018-06-15T11:35:58.546Z,8.70
2018-06-15T11:37:03.989Z,8.53
2018-06-15T11:38:10.104Z,8.07
2018-06-15T11:39:15.496Z,7.77
2018-06-15T11:40:21.013Z,6.80
2018-06-15T11:41:27.014Z,9.10
2018-06-15T11:42:32.503Z,7.83
2018-06-15T11:43:37.933Z,9.00
2018-06-15T11:44:43.393Z,7.97
2018-06-15T11:45:48.809Z,8.20
2018-06-15T11:46:54.953Z,7.70
2018-06-15T11:48:00.385Z,7.37
2018-06-15T11:49:05.821Z,7.50
2018-06-15T11:50:11.398Z,7.10
2018-06-15T11:51:16.836Z,7.40
2018-06-15T11:52:22.429Z,7.73
2018-06-15T11:53:27.865Z,7.73
2018-06-15T11:54:33.280Z,7.40
2018-06-15T11:55:38.733Z,6.30
2018-06-15T11:56:44.174Z,6.60
2018-06-15T11:57:49.654Z,5.97
2018-06-15T11:58:55.078Z,5.90
2018-06-15T12:00:00.576Z,5.73
2018-06-15T12:01:06.432Z,7.50
2018-06-15T12:02:11.894Z,7.37
2018-06-15T12:03:17.357Z,7.07
2018-06-15T12:04:22.796Z,7.50
2018-06-15T12:05:28.273Z,8.20
2018-06-15T12:06:33.769Z,7.50
2018-06-15T12:07:39.209Z,7.43
2018-06-15T12:08:44.621Z,7.33
2018-06-15T12:09:50.046Z,7.07
2018-06-15T12:10:55.501Z,7.40
2018-06-15T12:12:01.039Z,7.43
2018-06-15T12:13:06.481Z,6.83
2018-06-15T12:14:11.658Z,6.50
2018-06-15T12:15:17.186Z,6.40
2018-06-15T12:16:22.621Z,8.53
2018-06-15T12:17:28.073Z,9.50
2018-06-15T12:18:33.832Z,8.20
2018-06-15T12:19:39.246Z,8.30
2018-06-15T12:20:44.694Z,8.17
2018-06-15T12:21:50.118Z,9.07
2018-06-15T12:22:55.581Z,7.27
2018-06-15T12:24:01.012Z,7.00
2018-06-15T12:25:06.462Z,5.57
2018-06-15T12:26:11.977Z,6.57
2018-06-15T12:27:17.766Z,5.23
2018-06-15T12:28:23.196Z,6.50
2018-06-15T12:29:28.629Z,5.90
2018-06-15T12:30:34.225Z,7.40
2018-06-15T12:31:39.630Z,6.70
2018-06-15T12:32:45.117Z,6.10
2018-06-15T12:33:50.460Z,6.30
2018-06-15T12:34:56.013Z,6.77
2018-06-15T12:36:01.468Z,6.00
2018-06-15T12:37:07.037Z,5.90
2018-06-15T12:38:12.473Z,5.77
2018-06-15T12:39:17.945Z,6.30
2018-06-15T12:40:23.202Z,6.63
2018-06-15T12:41:28.532Z,7.87
2018-06-15T12:42:33.974Z,7.73
2018-06-15T12:43:39.040Z,6.20
2018-06-15T12:44:44.358Z,7.27
2018-06-15T12:45:50.196Z,7.63
2018-06-15T12:46:55.347Z,7.40
2018-06-15T12:48:00.698Z,6.77
2018-06-15T12:49:06.610Z,7.77
2018-06-15T12:50:12.062Z,7.47
2018-06-15T12:51:17.530Z,6.47
2018-06-15T12:52:22.938Z,6.33
2018-06-15T12:53:28.567Z,6.87
2018-06-15T12:54:34.090Z,7.57
2018-06-15T12:55:39.716Z,7.07
2018-06-15T12:56:45.101Z,7.93
2018-06-15T12:57:50.578Z,7.80
2018-06-15T12:58:56.055Z,8.43
2018-06-15T13:00:01.551Z,10.03
2018-06-15T13:01:07.076Z,7.80
2018-06-15T13:02:12.481Z,8.00
2018-06-15T13:03:17.909Z,9.07
2018-06-15T13:04:23.325Z,8.90
2018-06-15T13:05:28.746Z,8.90
2018-06-15T13:06:34.604Z,7.80
2018-06-15T13:07:40.429Z,8.33
2018-06-15T13:08:46.044Z,8.90
2018-06-15T13:09:51.525Z,8.47
2018-06-15T13:10:56.921Z,10.07
2018-06-15T13:12:02.385Z,9.13
2018-06-15T13:13:07.842Z,9.03
2018-06-15T13:14:13.420Z,9.80
2018-06-15T13:15:19.094Z,8.60
2018-06-15T13:16:24.531Z,8.80
2018-06-15T13:17:30.065Z,8.43
2018-06-15T13:18:35.567Z,8.50
2018-06-15T13:19:40.986Z,10.37
2018-06-15T13:20:46.397Z,9.20
2018-06-15T13:21:51.926Z,9.90
2018-06-15T13:22:57.346Z,10.43
2018-06-15T13:24:02.830Z,10.70
2018-06-15T13:25:08.399Z,11.43
2018-06-15T13:26:16.681Z,8.67
2018-06-15T13:27:22.077Z,9.97
2018-06-15T13:28:27.857Z,8.80
2018-06-15T13:29:33.497Z,10.13
2018-06-15T13:30:39.027Z,9.73
2018-06-15T13:31:44.456Z,8.93
2018-06-15T13:32:49.924Z,9.30
2018-06-15T13:33:55.345Z,9.77
2018-06-15T13:35:00.672Z,8.80
2018-06-15T13:36:05.832Z,7.67
2018-06-15T13:37:11.165Z,9.53
2018-06-15T13:38:17.124Z,9.57
2018-06-15T13:39:22.449Z,11.00
2018-06-15T13:40:27.903Z,10.93
2018-06-15T13:41:33.445Z,10.50
2018-06-15T13:42:38.941Z,10.50
2018-06-15T13:43:44.382Z,10.23
2018-06-15T13:44:49.774Z,10.10
2018-06-15T13:45:55.243Z,9.60
2018-06-15T13:47:00.926Z,9.53
2018-06-15T13:48:06.367Z,10.10
2018-06-15T13:49:11.785Z,9.00
2018-06-15T13:50:17.339Z,10.00
2018-06-15T13:51:22.758Z,10.20
2018-06-15T13:52:28.392Z,10.30
2018-06-15T13:53:33.829Z,9.17
2018-06-15T13:54:39.290Z,9.90
2018-06-15T13:55:44.733Z,9.90
2018-06-15T13:56:50.178Z,10.53
2018-06-15T13:57:56.243Z,9.07
2018-06-15T13:59:01.721Z,8.93
2018-06-15T14:00:07.223Z,10.17
2018-06-15T14:01:12.649Z,9.30
2018-06-15T14:02:18.102Z,9.17
2018-06-15T14:03:23.728Z,8.73
2018-06-15T14:04:29.125Z,9.10
2018-06-15T14:05:34.623Z,7.10
2018-06-15T14:06:40.073Z,9.93
2018-06-15T14:07:45.581Z,9.00
2018-06-15T14:08:51.130Z,8.50
2018-06-15T14:09:56.680Z,9.43
2018-06-15T14:11:02.074Z,9.07